createdAt,value
2018-03-18T00:01:17.428Z,79.20
2018-03-18T00:03:44.912Z,80.50
2018-03-18T00:06:12.377Z,80.10
2018-03-18T00:08:39.825Z,79.90
2018-03-18T00:11:07.299Z,79.60
2018-03-18T00:13:34.765Z,79.50
2018-03-18T00:16:02.227Z,79.60
2018-03-18T00:18:29.697Z,79.80
2018-03-18T00:20:57.257Z,80.10
2018-03-18T00:23:24.771Z,79.50
2018-03-18T00:25:52.271Z,78.40
2018-03-18T00:28:19.824Z,78.30
2018-03-18T00:30:47.387Z,79.10
2018-03-18T00:33:14.968Z,78.40
2018-03-18T00:35:42.436Z,79.40
2018-03-18T00:38:09.899Z,79.40
2018-03-18T00:40:37.363Z,79.30
2018-03-18T00:43:04.836Z,78.90
2018-03-18T00:45:32.323Z,79.20
2018-03-18T00:47:59.806Z,79.40
2018-03-18T00:50:27.256Z,79.00
2018-03-18T00:52:54.727Z,80.10
2018-03-18T00:55:22.211Z,79.20
2018-03-18T00:57:49.671Z,80.80
2018-03-18T01:00:17.129Z,80.80
2018-03-18T01:02:44.596Z,79.80
2018-03-18T01:05:12.067Z,79.50
2018-03-18T01:07:39.552Z,79.40
2018-03-18T01:10:07.018Z,80.00
2018-03-18T01:12:34.476Z,78.60
2018-03-18T01:15:01.943Z,79.50
2018-03-18T01:17:29.419Z,79.70
2018-03-18T01:19:56.876Z,78.60
2018-03-18T01:22:24.331Z,78.70
2018-03-18T01:24:51.806Z,78.60
2018-03-18T01:27:19.263Z,78.80
2018-03-18T01:29:46.718Z,80.20
2018-03-18T01:32:14.196Z,78.80
2018-03-18T01:34:41.647Z,78.60
2018-03-18T01:37:09.894Z,79.30
2018-03-18T01:39:37.371Z,78.50
2018-03-18T01:42:04.827Z,78.80
2018-03-18T01:44:32.288Z,79.30
2018-03-18T01:46:59.795Z,79.60
2018-03-18T01:49:27.252Z,78.50
2018-03-18T01:51:54.706Z,78.40
2018-03-18T01:54:22.191Z,78.50
2018-03-18T01:56:49.759Z,79.10
2018-03-18T01:59:17.215Z,78.40
2018-03-18T02:01:44.697Z,78.40
2018-03-18T02:04:12.146Z,78.40
2018-03-18T02:06:39.690Z,78.70
2018-03-18T02:09:08.045Z,78.20
2018-03-18T02:11:35.599Z,78.20
2018-03-18T02:14:03.055Z,77.80
2018-03-18T02:16:30.651Z,77.90
2018-03-18T02:18:58.106Z,77.90
2018-03-18T02:21:25.582Z,77.90
2018-03-18T02:23:53.208Z,78.30
2018-03-18T02:26:20.676Z,77.80
2018-03-18T02:28:48.123Z,77.50
2018-03-18T02:31:16.379Z,78.40
2018-03-18T02:33:43.840Z,78.30
2018-03-18T02:36:11.323Z,77.90
2018-03-18T02:38:38.806Z,78.30
2018-03-18T02:41:06.263Z,77.80
2018-03-18T02:43:33.722Z,77.60
2018-03-18T02:46:01.257Z,77.70
2018-03-18T02:48:28.707Z,77.60
2018-03-18T02:50:56.940Z,78.30
2018-03-18T02:53:24.443Z,78.40
2018-03-18T02:55:51.896Z,77.70
2018-03-18T02:58:19.352Z,77.50
2018-03-18T03:00:46.841Z,78.50
2018-03-18T03:03:14.295Z,77.30
2018-03-18T03:05:41.755Z,78.40
2018-03-18T03:08:09.255Z,77.50
2018-03-18T03:10:36.820Z,77.00
2018-03-18T03:13:04.291Z,77.20
2018-03-18T03:15:31.780Z,77.20
2018-03-18T03:17:59.239Z,77.60
2018-03-18T03:20:26.695Z,77.60
2018-03-18T03:22:54.263Z,75.80
2018-03-18T03:25:21.728Z,77.30
2018-03-18T03:27:49.214Z,77.60
2018-03-18T03:30:16.691Z,76.60
2018-03-18T03:32:44.144Z,75.80
2018-03-18T03:35:11.619Z,75.90
2018-03-18T03:37:39.091Z,74.90
2018-03-18T03:40:06.612Z,74.60
2018-03-18T03:42:34.091Z,75.40
2018-03-18T03:45:01.548Z,75.90
2018-03-18T03:47:29.112Z,74.90
2018-03-18T03:49:57.356Z,75.80
2018-03-18T03:52:24.847Z,75.80
2018-03-18T03:54:52.403Z,75.50
2018-03-18T03:57:19.879Z,74.30
2018-03-18T03:59:47.442Z,74.20
2018-03-18T04:02:14.900Z,74.80
2018-03-18T04:04:42.396Z,75.70
2018-03-18T04:07:09.860Z,75.80
2018-03-18T04:09:37.483Z,74.90
2018-03-18T04:12:05.008Z,75.80
2018-03-18T04:14:32.468Z,75.50
2018-03-18T04:16:59.963Z,75.00
2018-03-18T04:19:28.216Z,75.00
2018-03-18T04:21:55.666Z,74.90
2018-03-18T04:24:23.127Z,75.10
2018-03-18T04:26:50.606Z,76.40
2018-03-18T04:29:18.066Z,76.40
2018-03-18T04:31:45.531Z,75.90
2018-03-18T04:34:13.102Z,76.20
2018-03-18T04:36:41.323Z,76.50
2018-03-18T04:39:09.219Z,76.50
2018-03-18T04:41:36.700Z,76.60
2018-03-18T04:44:04.160Z,76.30
2018-03-18T04:46:31.629Z,77.70
2018-03-18T04:48:59.106Z,77.60
2018-03-18T04:51:27.323Z,80.80
2018-03-18T04:53:55.556Z,81.70
2018-03-18T04:56:23.047Z,81.70
2018-03-18T04:58:50.610Z,82.50
2018-03-18T05:01:18.068Z,83.40
2018-03-18T05:03:45.543Z,83.00
2018-03-18T05:06:13.036Z,84.70
2018-03-18T05:08:40.492Z,85.50
2018-03-18T05:11:07.972Z,87.70
2018-03-18T05:13:35.432Z,87.70
2018-03-18T05:16:02.891Z,90.00
2018-03-18T05:18:30.371Z,90.40
2018-03-18T05:20:57.835Z,91.10
2018-03-18T05:23:25.291Z,91.90
2018-03-18T05:25:52.773Z,91.70
2018-03-18T05:28:20.237Z,91.60
2018-03-18T05:30:47.704Z,91.80
2018-03-18T05:33:15.180Z,91.80
2018-03-18T05:35:42.643Z,91.70
2018-03-18T05:38:10.102Z,91.80
2018-03-18T05:40:37.588Z,91.70
2018-03-18T05:43:05.091Z,91.70
2018-03-18T05:45:32.550Z,91.30
2018-03-18T05:48:00.032Z,90.50
2018-03-18T05:50:27.603Z,88.90
2018-03-18T05:52:55.061Z,86.40
2018-03-18T05:55:22.544Z,85.80
2018-03-18T05:57:50.010Z,85.00
2018-03-18T06:00:17.463Z,85.50
2018-03-18T06:02:44.936Z,86.30
2018-03-18T06:05:12.391Z,85.40
2018-03-18T06:07:39.846Z,84.50
2018-03-18T06:10:07.332Z,86.40
2018-03-18T06:12:34.792Z,85.50
2018-03-18T06:15:02.350Z,86.20
2018-03-18T06:17:29.827Z,86.70
2018-03-18T06:19:57.286Z,87.20
2018-03-18T06:22:24.739Z,87.60
2018-03-18T06:24:53.033Z,87.10
2018-03-18T06:27:20.568Z,87.00
2018-03-18T06:29:48.025Z,87.60
2018-03-18T06:32:15.495Z,89.00
2018-03-18T06:34:42.979Z,90.20
2018-03-18T06:37:10.455Z,90.30
2018-03-18T06:39:37.943Z,90.70
2018-03-18T06:42:05.407Z,90.80
2018-03-18T06:44:33.883Z,90.80
2018-03-18T06:47:01.487Z,90.80
2018-03-18T06:49:29.717Z,90.90
2018-03-18T06:51:57.179Z,90.50
2018-03-18T06:54:24.635Z,90.50
2018-03-18T06:56:52.118Z,90.10
2018-03-18T06:59:19.572Z,90.00
2018-03-18T07:01:47.097Z,90.30
2018-03-18T07:04:14.560Z,90.20
2018-03-18T07:06:42.031Z,90.50
2018-03-18T07:09:09.503Z,90.70
2018-03-18T07:11:36.974Z,90.50
2018-03-18T07:14:04.431Z,90.80
2018-03-18T07:16:31.902Z,90.90
2018-03-18T07:18:59.364Z,90.50
2018-03-18T07:21:26.849Z,90.50
2018-03-18T07:23:54.318Z,90.50
2018-03-18T07:26:21.799Z,90.30
2018-03-18T07:28:49.275Z,90.50
2018-03-18T07:31:16.744Z,91.80
2018-03-18T07:33:44.216Z,89.50
2018-03-18T07:36:11.671Z,90.00
2018-03-18T07:38:39.267Z,89.70
2018-03-18T07:41:06.814Z,87.10
2018-03-18T07:43:34.300Z,86.50
2018-03-18T07:46:01.819Z,85.70
2018-03-18T07:48:29.295Z,85.90
2018-03-18T07:50:56.755Z,85.50
2018-03-18T07:53:24.227Z,85.50
2018-03-18T07:55:51.688Z,84.50
2018-03-18T07:58:19.157Z,86.30
2018-03-18T08:00:46.736Z,86.00
2018-03-18T08:03:14.211Z,83.00
2018-03-18T08:05:41.676Z,83.30
2018-03-18T08:08:09.365Z,84.00
2018-03-18T08:10:36.868Z,81.90
2018-03-18T08:13:04.332Z,82.80
2018-03-18T08:15:31.914Z,80.90
2018-03-18T08:17:59.375Z,81.30
2018-03-18T08:20:26.847Z,81.00
2018-03-18T08:22:54.304Z,81.90
2018-03-18T08:25:21.796Z,81.30
2018-03-18T08:27:49.244Z,80.30
2018-03-18T08:30:16.711Z,80.30
2018-03-18T08:32:44.174Z,79.50
2018-03-18T08:35:11.712Z,77.30
2018-03-18T08:37:39.946Z,78.70
2018-03-18T08:40:07.425Z,78.60
2018-03-18T08:42:34.874Z,76.90
2018-03-18T08:45:02.355Z,76.40
2018-03-18T08:47:29.819Z,75.60
2018-03-18T08:51:29.663Z,75.00
2018-03-18T08:53:57.204Z,74.90
2018-03-18T08:56:24.775Z,76.40
2018-03-18T08:58:53.167Z,77.30
2018-03-18T09:01:20.668Z,77.20
2018-03-18T09:03:48.082Z,77.10
2018-03-18T09:06:16.315Z,76.70
2018-03-18T09:08:43.785Z,76.70
2018-03-18T09:11:11.304Z,76.40
2018-03-18T09:13:38.851Z,76.30
2018-03-18T09:16:06.335Z,76.00
2018-03-18T09:18:33.800Z,77.30
2018-03-18T09:21:01.264Z,74.50
2018-03-18T09:23:28.838Z,72.00
2018-03-18T09:25:56.291Z,71.10
2018-03-18T09:28:23.751Z,72.50
2018-03-18T09:30:51.208Z,74.00
2018-03-18T09:33:18.720Z,73.90
2018-03-18T09:35:46.176Z,71.80
2018-03-18T09:38:13.659Z,72.00
2018-03-18T09:40:41.159Z,72.90
2018-03-18T09:43:09.403Z,70.40
2018-03-18T09:45:36.891Z,70.50
2018-03-18T09:48:04.383Z,76.60
2018-03-18T09:50:32.043Z,76.40
2018-03-18T09:52:59.564Z,74.10
2018-03-18T09:55:26.975Z,70.00
2018-03-18T09:57:54.445Z,70.00
2018-03-18T10:00:21.903Z,68.70
2018-03-18T10:02:49.361Z,68.80
2018-03-18T10:05:16.832Z,70.00
2018-03-18T10:07:44.280Z,69.80
2018-03-18T10:10:11.743Z,67.00
2018-03-18T10:12:39.316Z,69.80
2018-03-18T10:15:07.544Z,69.90
2018-03-18T10:17:35.000Z,69.90
2018-03-18T10:20:02.492Z,67.70
2018-03-18T10:22:29.945Z,68.80
2018-03-18T10:24:57.408Z,69.30
2018-03-18T10:27:24.956Z,69.70
2018-03-18T10:29:52.475Z,69.20
2018-03-18T10:32:19.940Z,66.30
2018-03-18T10:34:47.410Z,68.00
2018-03-18T10:37:14.857Z,69.90
2018-03-18T10:39:42.311Z,69.80
2018-03-18T10:42:09.776Z,67.30
2018-03-18T10:44:37.219Z,67.50
2018-03-18T10:47:05.456Z,67.10
2018-03-18T10:49:32.908Z,67.00
2018-03-18T10:52:00.390Z,68.70
2018-03-18T10:54:27.857Z,66.30
2018-03-18T10:56:55.343Z,65.70
2018-03-18T10:59:22.860Z,66.90
2018-03-18T11:01:55.247Z,66.90
2018-03-18T11:04:23.491Z,65.40
2018-03-18T11:06:50.947Z,65.60
2018-03-18T11:09:18.400Z,67.40
2018-03-18T11:11:45.863Z,66.90
2018-03-18T11:14:13.314Z,66.00
2018-03-18T11:16:41.592Z,66.00
2018-03-18T11:19:09.044Z,66.00
2018-03-18T11:21:36.511Z,66.50
2018-03-18T11:24:03.967Z,62.40
2018-03-18T11:26:31.420Z,63.20
2018-03-18T11:28:58.932Z,63.10
2018-03-18T11:31:26.392Z,63.70
2018-03-18T11:33:53.861Z,64.10
2018-03-18T11:36:21.307Z,64.00
2018-03-18T11:38:48.775Z,60.90
2018-03-18T11:41:16.221Z,61.10
2018-03-18T11:43:43.687Z,62.00
2018-03-18T11:46:11.154Z,60.60
2018-03-18T11:48:39.383Z,59.50
2018-03-18T11:51:06.859Z,59.40
2018-03-18T11:53:34.322Z,60.70
2018-03-18T11:56:01.827Z,61.40
2018-03-18T11:58:29.426Z,59.70
2018-03-18T12:00:56.835Z,60.50
2018-03-18T12:03:24.311Z,62.00
2018-03-18T12:05:51.880Z,62.50
2018-03-18T12:08:31.199Z,60.50
2018-03-18T12:10:58.670Z,61.00
2018-03-18T12:13:26.108Z,61.40
2018-03-18T12:15:54.336Z,61.60
2018-03-18T12:18:21.826Z,61.60
2018-03-18T12:20:49.410Z,61.50
2018-03-18T12:23:16.864Z,61.30
2018-03-18T12:25:44.326Z,62.50
2018-03-18T12:28:11.775Z,62.00
2018-03-18T12:30:39.284Z,62.70
2018-03-18T12:33:06.731Z,61.90
2018-03-18T12:35:34.210Z,60.90
2018-03-18T12:38:01.663Z,61.40
2018-03-18T12:40:30.499Z,59.70
2018-03-18T12:43:09.752Z,58.90
2018-03-18T12:45:37.230Z,59.50
2018-03-18T12:48:04.791Z,59.90
2018-03-18T12:50:32.243Z,59.30
2018-03-18T12:52:59.703Z,57.90
2018-03-18T12:55:27.188Z,60.10
2018-03-18T12:57:54.651Z,58.20
2018-03-18T13:00:22.128Z,59.70
2018-03-18T13:02:49.703Z,58.60
2018-03-18T13:05:17.151Z,58.60
2018-03-18T13:07:44.616Z,58.20
2018-03-18T13:10:12.170Z,57.20
2018-03-18T13:12:39.633Z,57.40
2018-03-18T13:15:07.159Z,56.80
2018-03-18T13:17:34.623Z,57.60
2018-03-18T13:20:02.092Z,54.20
2018-03-18T13:22:29.572Z,52.00
2018-03-18T13:24:57.032Z,50.70
2018-03-18T13:27:24.483Z,48.20
2018-03-18T13:29:51.947Z,45.70
2018-03-18T13:32:19.414Z,47.60
2018-03-18T13:34:46.892Z,46.40
2018-03-18T13:37:14.351Z,46.00
2018-03-18T13:39:41.911Z,45.90
2018-03-18T13:42:09.463Z,45.50
2018-03-18T13:44:36.956Z,45.10
2018-03-18T13:47:04.426Z,44.60
2018-03-18T13:49:32.871Z,46.70
2018-03-18T13:52:00.347Z,46.60
2018-03-18T13:54:27.850Z,47.40
2018-03-18T13:56:55.396Z,47.50
2018-03-18T13:59:22.903Z,47.90
2018-03-18T14:01:50.420Z,48.00
2018-03-18T14:04:17.987Z,47.60
2018-03-18T14:06:45.431Z,48.20
2018-03-18T14:09:12.891Z,45.50
2018-03-18T14:11:40.398Z,46.90
2018-03-18T14:14:07.852Z,46.70
2018-03-18T14:16:35.352Z,46.90
2018-03-18T14:19:03.040Z,44.30
2018-03-18T14:21:30.563Z,45.40
2018-03-18T14:23:58.011Z,42.10
2018-03-18T14:26:25.476Z,44.90
2018-03-18T14:28:52.924Z,42.60
2018-03-18T14:31:21.259Z,42.00
2018-03-18T14:33:48.696Z,42.00
2018-03-18T14:36:17.052Z,43.20
2018-03-18T14:38:44.455Z,43.00
2018-03-18T14:41:12.685Z,44.70
2018-03-18T14:43:40.143Z,44.30
2018-03-18T14:46:07.604Z,46.80
2018-03-18T14:48:35.111Z,48.10
2018-03-18T14:51:02.567Z,47.80
2018-03-18T14:53:30.175Z,48.50
2018-03-18T14:55:57.715Z,49.80
2018-03-18T14:58:25.197Z,51.00
2018-03-18T15:00:52.652Z,50.00
2018-03-18T15:03:20.147Z,50.70
2018-03-18T15:05:47.605Z,51.60
2018-03-18T15:08:15.068Z,52.10
2018-03-18T15:10:42.538Z,51.50
2018-03-18T15:13:10.000Z,53.10
2018-03-18T15:15:37.447Z,52.60
2018-03-18T15:18:04.917Z,51.80
2018-03-18T15:20:32.427Z,52.90
2018-03-18T15:22:59.945Z,53.30
2018-03-18T15:25:27.359Z,52.30
2018-03-18T15:27:54.836Z,52.60
2018-03-18T15:30:22.318Z,52.40
2018-03-18T15:32:49.763Z,53.80
2018-03-18T15:35:17.227Z,53.70
2018-03-18T15:37:44.684Z,53.70
2018-03-18T15:40:12.169Z,54.60
2018-03-18T15:42:39.628Z,56.30
2018-03-18T15:45:07.088Z,55.10
2018-03-18T15:47:34.651Z,54.90
2018-03-18T15:50:02.120Z,54.60
2018-03-18T15:52:29.720Z,53.90
2018-03-18T15:54:57.119Z,54.00
2018-03-18T15:57:24.575Z,53.80
2018-03-18T15:59:52.044Z,54.30
2018-03-18T16:02:19.500Z,55.50
2018-03-18T16:04:46.960Z,55.50
2018-03-18T16:07:14.416Z,55.70
2018-03-18T16:09:41.894Z,55.90
2018-03-18T16:12:09.347Z,56.60
2018-03-18T16:14:36.807Z,56.60
2018-03-18T16:17:05.047Z,55.20
2018-03-18T16:19:32.576Z,55.10
2018-03-18T16:22:00.054Z,55.20
2018-03-18T16:24:27.563Z,55.80
2018-03-18T16:26:55.044Z,54.80
2018-03-18T16:29:35.199Z,54.50
2018-03-18T16:32:02.705Z,54.50
2018-03-18T16:34:30.917Z,55.20
2018-03-18T16:36:58.583Z,55.00
2018-03-18T16:39:26.791Z,56.50
2018-03-18T16:41:54.283Z,56.50
2018-03-18T16:44:37.896Z,56.90
2018-03-18T16:47:05.467Z,56.90
2018-03-18T16:49:33.679Z,56.80
2018-03-18T16:52:01.225Z,56.80
2018-03-18T16:54:28.680Z,57.50
2018-03-18T16:56:56.908Z,57.00
2018-03-18T16:59:24.360Z,57.00
2018-03-18T17:01:51.827Z,59.40
2018-03-18T17:04:19.288Z,57.10
2018-03-18T17:06:47.584Z,56.80
2018-03-18T17:09:15.048Z,56.80
2018-03-18T17:11:43.279Z,57.70
2018-03-18T17:14:10.855Z,57.60
2018-03-18T17:16:38.319Z,58.70
2018-03-18T17:19:05.788Z,58.30
2018-03-18T17:21:33.251Z,59.60
2018-03-18T17:24:00.726Z,58.10
2018-03-18T17:26:28.195Z,59.00
2018-03-18T17:28:55.674Z,58.70
2018-03-18T17:31:23.142Z,58.40
2018-03-18T17:33:50.715Z,58.90
2018-03-18T17:36:18.172Z,57.60
2018-03-18T17:38:45.635Z,57.90
2018-03-18T17:41:13.283Z,57.60
2018-03-18T17:43:40.758Z,58.70
2018-03-18T17:46:20.247Z,57.30
2018-03-18T17:48:59.716Z,57.10
2018-03-18T17:51:39.154Z,56.30
2018-03-18T17:54:18.476Z,56.30
2018-03-18T17:56:46.751Z,57.30
2018-03-18T17:59:14.217Z,57.20
2018-03-18T18:01:41.768Z,57.20
2018-03-18T18:04:09.983Z,56.40
2018-03-18T18:06:37.463Z,56.40
2018-03-18T18:09:04.951Z,56.00
2018-03-18T18:11:32.427Z,56.30
2018-03-18T18:13:59.884Z,56.00
2018-03-18T18:16:27.347Z,55.80
2018-03-18T18:18:54.800Z,57.20
2018-03-18T18:21:22.270Z,56.60
2018-03-18T18:23:49.784Z,55.70
2018-03-18T18:26:17.259Z,55.90
2018-03-18T18:28:44.719Z,56.30
2018-03-18T18:31:12.246Z,57.00
2018-03-18T18:33:39.697Z,56.30
2018-03-18T18:36:07.958Z,56.30
2018-03-18T18:38:35.429Z,56.30
2018-03-18T18:41:02.888Z,56.20
2018-03-18T18:43:30.461Z,55.90
2018-03-18T18:45:57.923Z,56.50
2018-03-18T18:48:25.391Z,56.10
2018-03-18T18:50:53.027Z,56.00
2018-03-18T18:53:20.498Z,56.90
2018-03-18T18:55:47.947Z,57.20
2018-03-18T18:58:16.175Z,57.60
2018-03-18T19:00:43.627Z,57.50
2018-03-18T19:03:11.139Z,56.50
2018-03-18T19:05:38.675Z,55.50
2018-03-18T19:08:06.138Z,56.40
2018-03-18T19:10:33.596Z,56.50
2018-03-18T19:13:01.130Z,55.20
2018-03-18T19:15:28.597Z,55.20
2018-03-18T19:17:57.652Z,54.10
2018-03-18T19:20:25.167Z,54.00
2018-03-18T19:22:52.623Z,53.60
2018-03-18T19:25:20.095Z,53.70
2018-03-18T19:27:47.556Z,53.20
2018-03-18T19:30:15.051Z,53.90
2018-03-18T19:32:42.537Z,54.00
2018-03-18T19:35:10.003Z,53.30
2018-03-18T19:37:37.565Z,53.90
2018-03-18T19:40:05.032Z,54.60
2018-03-18T19:42:32.502Z,56.60
2018-03-18T19:44:59.967Z,56.50
2018-03-18T19:47:27.420Z,55.10
2018-03-18T19:49:56.264Z,54.50
2018-03-18T19:52:23.708Z,55.20
2018-03-18T19:54:51.171Z,53.90
2018-03-18T19:57:18.665Z,54.10
2018-03-18T19:59:46.144Z,53.50
2018-03-18T20:02:13.606Z,54.70
2018-03-18T20:04:41.067Z,54.30
2018-03-18T20:07:08.536Z,53.50
2018-03-18T20:09:35.983Z,54.50
2018-03-18T20:12:03.452Z,54.20
2018-03-18T20:14:31.821Z,53.80
2018-03-18T20:16:59.604Z,53.90
2018-03-18T20:19:27.178Z,52.60
2018-03-18T20:21:54.652Z,53.40
2018-03-18T20:24:22.128Z,52.80
2018-03-18T20:26:49.617Z,53.30
2018-03-18T20:29:17.081Z,53.00
2018-03-18T20:31:44.588Z,52.80
2018-03-18T20:34:12.803Z,52.60
2018-03-18T20:36:41.036Z,53.10
2018-03-18T20:39:08.491Z,53.00
2018-03-18T20:41:36.004Z,51.80
2018-03-18T20:44:03.620Z,51.70
2018-03-18T20:46:31.093Z,52.90
2018-03-18T20:48:59.322Z,52.50
2018-03-18T20:51:26.787Z,52.40
2018-03-18T20:53:54.251Z,52.40
2018-03-18T20:56:21.695Z,52.30
2018-03-18T20:58:49.266Z,52.90
2018-03-18T21:01:17.475Z,53.30
2018-03-18T21:03:44.944Z,53.30
2018-03-18T21:06:12.424Z,53.60
2018-03-18T21:08:39.874Z,52.30
2018-03-18T21:11:07.328Z,51.90
2018-03-18T21:13:35.568Z,51.70
2018-03-18T21:16:03.048Z,51.50
2018-03-18T21:18:31.390Z,53.00
2018-03-18T21:20:58.958Z,52.50
2018-03-18T21:23:26.427Z,52.50
2018-03-18T21:25:53.883Z,51.70
2018-03-18T21:28:22.138Z,53.30
2018-03-18T21:30:49.721Z,52.50
2018-03-18T21:33:17.126Z,50.70
2018-03-18T21:35:44.604Z,50.70
2018-03-18T21:38:12.174Z,50.80
2018-03-18T21:40:39.696Z,51.40
2018-03-18T21:43:07.139Z,52.10
2018-03-18T21:45:34.594Z,52.70
2018-03-18T21:48:02.047Z,52.30
2018-03-18T21:50:30.278Z,52.90
2018-03-18T21:52:57.739Z,52.80
2018-03-18T21:55:25.246Z,51.60
2018-03-18T21:57:52.699Z,51.40
2018-03-18T22:00:20.161Z,51.20
2018-03-18T22:02:47.607Z,51.70
2018-03-18T22:05:15.084Z,53.10
2018-03-18T22:07:42.531Z,53.10
2018-03-18T22:10:10.752Z,53.80
2018-03-18T22:12:38.215Z,53.70
2018-03-18T22:15:05.686Z,52.10
2018-03-18T22:17:33.147Z,53.40
2018-03-18T22:20:00.607Z,52.70
2018-03-18T22:22:28.119Z,52.40
2018-03-18T22:24:55.568Z,52.20
2018-03-18T22:27:23.031Z,52.10
2018-03-18T22:29:50.484Z,54.40
2018-03-18T22:32:18.057Z,52.80
2018-03-18T22:34:45.629Z,54.90
2018-03-18T22:37:13.103Z,53.30
2018-03-18T22:39:40.611Z,53.10
2018-03-18T22:42:08.071Z,52.80
2018-03-18T22:44:35.559Z,53.40
2018-03-18T22:47:03.080Z,52.80
2018-03-18T22:49:30.536Z,53.40
2018-03-18T22:51:59.683Z,53.30
2018-03-18T22:54:27.155Z,53.30
2018-03-18T22:56:54.607Z,54.10
2018-03-18T22:59:22.074Z,54.60
2018-03-18T23:01:49.531Z,55.70
2018-03-18T23:04:17.759Z,54.70
2018-03-18T23:06:45.239Z,54.70
2018-03-18T23:09:12.766Z,54.60
2018-03-18T23:11:40.980Z,54.70
2018-03-18T23:14:08.446Z,54.70
2018-03-18T23:16:35.903Z,54.30
2018-03-18T23:19:03.395Z,55.10
2018-03-18T23:21:30.851Z,54.60
2018-03-18T23:23:58.335Z,54.80
2018-03-18T23:26:25.795Z,54.90
2018-03-18T23:28:53.271Z,54.20
2018-03-18T23:31:20.725Z,54.30
2018-03-18T23:33:48.196Z,55.10
2018-03-18T23:36:15.753Z,54.90
2018-03-18T23:38:43.963Z,54.70
2018-03-18T23:41:11.444Z,54.60
2018-03-18T23:43:38.903Z,55.30
2018-03-18T23:46:06.399Z,55.60
2018-03-18T23:48:33.859Z,54.70
2018-03-18T23:51:01.335Z,54.90
2018-03-18T23:53:28.792Z,54.90
2018-03-18T23:55:56.255Z,55.80
2018-03-18T23:58:23.711Z,55.60
